createdAt,value
2023-05-25T00:01:01.333Z,7.1
2023-05-25T00:05:53.739Z,7
2023-05-25T00:10:50.973Z,7.7
2023-05-25T00:15:50.646Z,6.8
2023-05-25T00:20:53.959Z,6.6
2023-05-25T00:25:49.931Z,7.5
2023-05-25T00:30:49.510Z,8.3
2023-05-25T00:35:50.076Z,8.1
2023-05-25T00:40:48.885Z,8.2
2023-05-25T00:45:48.621Z,8.1
2023-05-25T00:50:48.204Z,8.8
2023-05-25T00:55:51.807Z,8.4
2023-05-25T01:00:49.353Z,8.1
2023-05-25T01:05:50.038Z,8.5
2023-05-25T01:10:46.689Z,9.3
2023-05-25T01:15:46.391Z,9.6
2023-05-25T01:20:45.878Z,10.5
2023-05-25T01:25:47.507Z,11.5
2023-05-25T01:30:46.799Z,10.9
2023-05-25T01:35:45.424Z,10.6
2023-05-25T01:40:44.526Z,10.3
2023-05-25T01:45:44.527Z,10.6
2023-05-25T01:50:47.257Z,9.7
2023-05-25T01:55:46.942Z,9.7
2023-05-25T02:00:44.249Z,8.9
2023-05-25T02:05:45.462Z,9
2023-05-25T02:10:42.560Z,9.5
2023-05-25T02:15:42.558Z,9.4
2023-05-25T02:20:42.045Z,10
2023-05-25T02:25:42.648Z,9.5
2023-05-25T02:30:41.142Z,10.7
2023-05-25T02:35:41.830Z,10.9
2023-05-25T02:40:40.367Z,11.7
2023-05-25T02:45:39.990Z,12.9
2023-05-25T02:50:39.799Z,12.3
2023-05-25T02:55:40.425Z,12.6
2023-05-25T03:00:39.301Z,13.6
2023-05-25T03:05:38.953Z,14.6
2023-05-25T03:10:38.162Z,14.1
2023-05-25T03:15:37.983Z,14.3
2023-05-25T03:20:37.391Z,13.8
2023-05-25T03:25:36.950Z,13.5
2023-05-25T03:30:36.561Z,13.3
2023-05-25T03:35:36.729Z,12.5
2023-05-25T03:40:35.759Z,12.9
2023-05-25T03:45:35.306Z,12.7
2023-05-25T03:50:34.947Z,13
2023-05-25T03:55:34.595Z,14.5
2023-05-25T04:00:34.160Z,13.4
2023-05-25T04:05:33.807Z,13.2
2023-05-25T04:10:33.288Z,13
2023-05-25T04:15:34.530Z,14.7
2023-05-25T04:20:32.815Z,14.7
2023-05-25T04:25:32.159Z,15.4
2023-05-25T04:30:32.145Z,14.6
2023-05-25T04:35:31.549Z,14.8
2023-05-25T04:40:33.030Z,14.9
2023-05-25T04:45:33.199Z,14.9
2023-05-25T04:50:30.410Z,13.8
2023-05-25T04:55:30.036Z,12.7
2023-05-25T05:00:29.821Z,10.2
2023-05-25T05:05:29.575Z,9.3
2023-05-25T05:10:29.439Z,8.7
2023-05-25T05:15:29.196Z,7.4
2023-05-25T05:20:29.239Z,8.7
2023-05-25T05:25:29.122Z,8.4
2023-05-25T05:30:29.091Z,7.9
2023-05-25T05:35:28.945Z,8.1
2023-05-25T05:40:31.913Z,8
2023-05-25T05:45:28.799Z,7.7
2023-05-25T05:50:28.973Z,8.6
2023-05-25T05:55:28.731Z,9.1
2023-05-25T06:00:28.821Z,9.4
2023-05-25T06:05:28.771Z,8.4
2023-05-25T06:10:28.766Z,9.1
2023-05-25T06:15:28.656Z,10.3
2023-05-25T06:20:28.692Z,10.1
2023-05-25T06:25:28.457Z,9.3
2023-05-25T06:30:28.417Z,9.2
2023-05-25T06:35:29.466Z,8.5
2023-05-25T06:40:28.128Z,8.9
2023-05-25T06:45:28.038Z,8.3
2023-05-25T06:50:28.026Z,7.5
2023-05-25T06:55:28.004Z,7.1
2023-05-25T07:00:28.316Z,7.2
2023-05-25T07:05:28.272Z,6.6
2023-05-25T07:10:28.528Z,6.6
2023-05-25T07:15:28.681Z,6.6
2023-05-25T07:20:30.069Z,7.3
2023-05-25T07:25:29.178Z,6.9
2023-05-25T07:30:29.591Z,6.4
2023-05-25T07:35:29.911Z,6.5
2023-05-25T07:40:30.114Z,6.5
2023-05-25T07:45:30.141Z,6.1
2023-05-25T07:50:31.807Z,6.7
2023-05-25T07:55:30.811Z,6
2023-05-25T08:00:30.993Z,6.4
2023-05-25T08:05:31.167Z,6.2
2023-05-25T08:10:32.317Z,6.5
2023-05-25T08:15:31.618Z,5.9
2023-05-25T08:20:32.211Z,6.1
2023-05-25T08:25:31.706Z,6
2023-05-25T08:30:32.369Z,5
2023-05-25T08:35:32.316Z,4.9
2023-05-25T08:40:31.986Z,4.9
2023-05-25T08:45:35.268Z,4.3
2023-05-25T08:50:34.274Z,4.4
2023-05-25T08:55:35.499Z,4.3
2023-05-25T09:00:34.240Z,4
2023-05-25T09:05:33.140Z,4.2
2023-05-25T09:10:33.536Z,4
2023-05-25T09:15:32.737Z,3.3
2023-05-25T09:20:33.083Z,3.4
2023-05-25T09:25:33.306Z,3.7
2023-05-25T09:30:35.712Z,4.1
2023-05-25T09:35:33.881Z,3.3
2023-05-25T09:40:34.330Z,3.7
2023-05-25T09:45:38.033Z,3.9
2023-05-25T09:50:34.836Z,3.1
2023-05-25T09:55:51.602Z,3.2
2023-05-25T10:00:34.969Z,3.4
2023-05-25T10:05:34.970Z,2.9
2023-05-25T10:10:35.670Z,3.4
2023-05-25T10:15:35.595Z,3.3
2023-05-25T10:20:36.304Z,3.6
2023-05-25T10:25:37.225Z,3.7
2023-05-25T10:30:36.944Z,3.3
2023-05-25T10:35:42.483Z,3.4
2023-05-25T10:40:36.777Z,3.9
2023-05-25T10:45:37.019Z,3.9
2023-05-25T10:50:38.864Z,3.6
2023-05-25T10:55:45.950Z,3.9
2023-05-25T11:00:38.484Z,3.1
2023-05-25T11:05:43.872Z,3.4
2023-05-25T11:10:54.932Z,3.1
2023-05-25T11:15:39.445Z,3.6
2023-05-25T11:20:38.151Z,3.2
2023-05-25T11:25:46.642Z,3
2023-05-25T11:30:38.650Z,3
2023-05-25T11:35:41.519Z,3
2023-05-25T11:40:40.449Z,2.8
2023-05-25T11:45:39.555Z,2.9
2023-05-25T11:50:39.593Z,3.4
2023-05-25T11:55:40.961Z,3.2
2023-05-25T12:00:40.413Z,3.4
2023-05-25T12:05:46.569Z,3.6
2023-05-25T12:10:50.785Z,3.4
2023-05-25T12:15:41.060Z,3.6
2023-05-25T12:20:41.366Z,3.9
2023-05-25T12:25:50.457Z,5.2
2023-05-25T12:30:41.671Z,4.2
2023-05-25T12:35:53.129Z,4.5
2023-05-25T12:40:42.374Z,5.2
2023-05-25T12:45:47.113Z,4.7
2023-05-25T12:50:42.801Z,4.6
2023-05-25T12:55:43.193Z,4.6
2023-05-25T13:00:43.951Z,4.7
2023-05-25T13:05:44.109Z,4.4
2023-05-25T13:10:43.662Z,4.2
2023-05-25T13:15:44.521Z,4.6
2023-05-25T13:20:45.387Z,4.6
2023-05-25T13:25:44.961Z,4.8
2023-05-25T13:30:44.565Z,4.2
2023-05-25T13:35:55.336Z,4.7
2023-05-25T13:40:45.455Z,4.8
2023-05-25T13:45:46.164Z,4.4
2023-05-25T13:50:45.390Z,4.6
2023-05-25T13:55:45.490Z,4.6
2023-05-25T14:00:45.929Z,5
2023-05-25T14:05:46.417Z,4.5
2023-05-25T14:10:46.945Z,4.7
2023-05-25T14:15:47.521Z,5.3
2023-05-25T14:20:46.688Z,4.7
2023-05-25T14:25:48.532Z,4.8
2023-05-25T14:30:47.334Z,4.9
2023-05-25T14:35:47.657Z,4.2
2023-05-25T14:40:47.515Z,4.8
2023-05-25T14:45:47.804Z,5
2023-05-25T14:50:48.083Z,4.5
2023-05-25T14:55:48.231Z,4.7
2023-05-25T15:00:48.431Z,5.1
2023-05-25T15:05:48.647Z,5.1
2023-05-25T15:10:48.997Z,4.8
2023-05-25T15:15:49.356Z,5.1
2023-05-25T15:20:49.304Z,4.5
2023-05-25T15:25:49.630Z,4.9
2023-05-25T15:30:49.853Z,5.4
2023-05-25T15:35:50.049Z,4.9
2023-05-25T15:40:50.384Z,5.4
2023-05-25T15:45:50.569Z,5.6
2023-05-25T15:50:51.210Z,5.1
2023-05-25T15:55:51.487Z,5.6
2023-05-25T16:00:51.335Z,5.2
2023-05-25T16:05:51.558Z,5.3
2023-05-25T16:10:51.881Z,5.4
2023-05-25T16:15:52.029Z,5.7
2023-05-25T16:20:56.266Z,5
2023-05-25T16:25:52.695Z,5.5
2023-05-25T16:30:53.414Z,5.3
2023-05-25T16:35:53.678Z,6
2023-05-25T16:40:53.212Z,5.2
2023-05-25T16:45:53.403Z,5.7
2023-05-25T16:50:53.587Z,5.1
2023-05-25T16:55:53.843Z,5.6
2023-05-25T17:00:54.038Z,5.4
2023-05-25T17:05:54.342Z,5.4
2023-05-25T17:10:54.542Z,5.4
2023-05-25T17:15:54.623Z,5.8
2023-05-25T17:20:55.107Z,5.6
2023-05-25T17:25:54.860Z,5.6
2023-05-25T17:30:56.595Z,6.1
2023-05-25T17:35:55.281Z,5.6
2023-05-25T17:40:55.752Z,6
2023-05-25T17:45:55.613Z,5.4
2023-05-25T17:50:55.759Z,6.9
2023-05-25T17:55:55.768Z,5.9
2023-05-25T18:00:55.860Z,6.5
2023-05-25T18:05:55.843Z,6.1
2023-05-25T18:10:55.890Z,6.5
2023-05-25T18:15:55.962Z,7.2
2023-05-25T18:20:55.764Z,7.6
2023-05-25T18:25:56.378Z,7.2
2023-05-25T18:30:55.702Z,6.6
2023-05-25T18:35:55.712Z,7.2
2023-05-25T18:40:55.513Z,6.4
2023-05-25T18:45:55.502Z,7.8
2023-05-25T18:50:55.813Z,6.3
2023-05-25T18:55:55.502Z,6.5
2023-05-25T19:00:55.234Z,6.3
2023-05-25T19:05:55.220Z,6.4
2023-05-25T19:10:55.173Z,7.2
2023-05-25T19:15:55.019Z,6.6
2023-05-25T19:20:54.838Z,7.1
2023-05-25T19:25:54.648Z,6.1
2023-05-25T19:30:54.486Z,6.9
2023-05-25T19:35:54.314Z,6.1
2023-05-25T19:40:54.190Z,7.2
2023-05-25T19:45:53.975Z,7
2023-05-25T19:50:53.828Z,6.4
2023-05-25T19:55:53.569Z,7.1
2023-05-25T20:00:53.655Z,6.7
2023-05-25T20:05:53.182Z,6.9
2023-05-25T20:10:53.799Z,6.4
2023-05-25T20:15:52.736Z,6.5
2023-05-25T20:20:52.601Z,5.9
2023-05-25T20:25:52.305Z,6.4
2023-05-25T20:30:52.064Z,6.5
2023-05-25T20:35:51.792Z,7.6
2023-05-25T20:40:51.547Z,7.3
2023-05-25T20:45:51.314Z,7
2023-05-25T20:50:51.077Z,6.9
2023-05-25T20:55:51.151Z,7.6
2023-05-25T21:00:51.072Z,6.9
2023-05-25T21:05:50.380Z,7.7
2023-05-25T21:10:50.164Z,7.6
2023-05-25T21:15:49.967Z,7.5
2023-05-25T21:20:49.726Z,7.9
2023-05-25T21:25:49.453Z,8.5
2023-05-25T21:30:49.212Z,8.5
2023-05-25T21:35:48.945Z,7.7
2023-05-25T21:40:48.611Z,8.8
2023-05-25T21:45:48.388Z,8.5
2023-05-25T21:50:48.104Z,7.9
2023-05-25T21:55:47.877Z,8.6
2023-05-25T22:00:47.561Z,8.7
2023-05-25T22:05:47.250Z,8.8
2023-05-25T22:10:46.976Z,7.7
2023-05-25T22:15:47.456Z,8.6
2023-05-25T22:20:46.515Z,8.8
2023-05-25T22:25:46.517Z,8
2023-05-25T22:30:46.040Z,8.6
2023-05-25T22:35:45.822Z,8.5
2023-05-25T22:40:47.447Z,7.6
2023-05-25T22:45:45.474Z,8.6
2023-05-25T22:50:44.795Z,8.5
2023-05-25T22:55:47.133Z,8.4
2023-05-25T23:00:44.182Z,8.4
2023-05-25T23:05:44.148Z,8.9
2023-05-25T23:10:43.624Z,8.7
2023-05-25T23:15:44.822Z,8.6
2023-05-25T23:20:43.218Z,8.6
2023-05-25T23:25:42.862Z,8.4
2023-05-25T23:30:42.453Z,7.3
2023-05-25T23:35:42.116Z,8.5
2023-05-25T23:40:41.857Z,8.3
2023-05-25T23:45:41.561Z,9.8
2023-05-25T23:50:41.297Z,8.5
2023-05-25T23:55:41.335Z,9.1
